sensor_id;sensor_type;location;lat;lon;timestamp;pressure;altitude;pressure_sealevel;temperature;humidity
24013;BME280;12220;50.194;18.948;2022-07-06T00:01:50;102028.89;;;19.12;81.58
24013;BME280;12220;50.194;18.948;2022-07-06T00:03:52;102029.02;;;19.11;81.71
24013;BME280;12220;50.194;18.948;2022-07-06T00:06:03;102025.20;;;19.12;81.54
24013;BME280;12220;50.194;18.948;2022-07-06T00:08:04;102036.45;;;19.10;81.61
24013;BME280;12220;50.194;18.948;2022-07-06T00:10:06;102033.94;;;19.07;81.65
24013;BME280;12220;50.194;18.948;2022-07-06T00:12:09;102034.07;;;19.06;81.46
24013;BME280;12220;50.194;18.948;2022-07-06T00:14:18;102036.23;;;19.02;81.50
24013;BME280;12220;50.194;18.948;2022-07-06T00:16:19;102033.86;;;18.97;81.64
24013;BME280;12220;50.194;18.948;2022-07-06T00:18:21;102036.87;;;18.94;81.64
24013;BME280;12220;50.194;18.948;2022-07-06T00:20:22;102033.23;;;18.94;81.55
24013;BME280;12220;50.194;18.948;2022-07-06T00:22:32;102030.72;;;18.91;81.55
24013;BME280;12220;50.194;18.948;2022-07-06T00:24:34;102037.40;;;18.88;81.57
24013;BME280;12220;50.194;18.948;2022-07-06T00:26:35;102047.77;;;18.86;81.61
24013;BME280;12220;50.194;18.948;2022-07-06T00:28:36;102040.31;;;18.87;81.64
24013;BME280;12220;50.194;18.948;2022-07-06T00:30:47;102031.12;;;18.86;81.85
24013;BME280;12220;50.194;18.948;2022-07-06T00:32:48;102036.54;;;18.88;81.74
24013;BME280;12220;50.194;18.948;2022-07-06T00:34:50;102031.59;;;18.91;81.70
24013;BME280;12220;50.194;18.948;2022-07-06T00:36:51;102032.23;;;18.95;81.66
24013;BME280;12220;50.194;18.948;2022-07-06T00:39:02;102040.41;;;18.96;81.54
24013;BME280;12220;50.194;18.948;2022-07-06T00:41:04;102038.64;;;18.95;81.39
24013;BME280;12220;50.194;18.948;2022-07-06T00:43:05;102042.42;;;18.94;81.33
24013;BME280;12220;50.194;18.948;2022-07-06T00:45:07;102047.11;;;18.94;81.34
24013;BME280;12220;50.194;18.948;2022-07-06T00:47:17;102045.46;;;18.91;81.41
24013;BME280;12220;50.194;18.948;2022-07-06T00:49:18;102050.02;;;18.92;81.38
24013;BME280;12220;50.194;18.948;2022-07-06T00:51:34;102051.92;;;18.92;81.34
24013;BME280;12220;50.194;18.948;2022-07-06T00:53:38;102052.66;;;18.94;81.41
24013;BME280;12220;50.194;18.948;2022-07-06T00:55:40;102047.85;;;18.96;81.37
24013;BME280;12220;50.194;18.948;2022-07-06T00:57:42;102050.63;;;18.96;81.40
24013;BME280;12220;50.194;18.948;2022-07-06T00:59:43;102050.63;;;18.96;81.30
24013;BME280;12220;50.194;18.948;2022-07-06T01:01:45;102046.84;;;18.97;81.34
24013;BME280;12220;50.194;18.948;2022-07-06T01:03:51;102039.29;;;18.99;81.41
24013;BME280;12220;50.194;18.948;2022-07-06T01:05:53;102048.35;;;19.01;81.41
24013;BME280;12220;50.194;18.948;2022-07-06T01:07:55;102040.76;;;19.03;81.38
24013;BME280;12220;50.194;18.948;2022-07-06T01:09:57;102040.39;;;19.08;81.31
24013;BME280;12220;50.194;18.948;2022-07-06T01:12:06;102030.89;;;19.10;81.24
24013;BME280;12220;50.194;18.948;2022-07-06T01:14:09;102023.46;;;19.11;81.06
24013;BME280;12220;50.194;18.948;2022-07-06T01:16:12;102030.02;;;19.10;81.00
24013;BME280;12220;50.194;18.948;2022-07-06T01:18:14;102022.55;;;19.10;81.03
24013;BME280;12220;50.194;18.948;2022-07-06T01:20:22;102029.89;;;19.11;81.02
24013;BME280;12220;50.194;18.948;2022-07-06T01:22:24;102030.02;;;19.10;80.97
24013;BME280;12220;50.194;18.948;2022-07-06T01:24:26;102039.22;;;19.10;80.87
24013;BME280;12220;50.194;18.948;2022-07-06T01:26:32;102027.38;;;19.08;80.79
24013;BME280;12220;50.194;18.948;2022-07-06T01:28:36;102027.38;;;19.08;80.75
24013;BME280;12220;50.194;18.948;2022-07-06T01:30:37;102022.96;;;19.06;80.71
24013;BME280;12220;50.194;18.948;2022-07-06T01:32:39;102021.95;;;19.07;80.61
24013;BME280;12220;50.194;18.948;2022-07-06T01:34:41;102019.32;;;19.05;80.55
24013;BME280;12220;50.194;18.948;2022-07-06T01:36:50;102019.45;;;19.04;80.58
24013;BME280;12220;50.194;18.948;2022-07-06T01:38:54;102023.09;;;19.04;80.53
24013;BME280;12220;50.194;18.948;2022-07-06T01:40:55;102026.02;;;19.03;80.43
24013;BME280;12220;50.194;18.948;2022-07-06T01:42:56;102028.92;;;19.01;80.26
24013;BME280;12220;50.194;18.948;2022-07-06T01:45:06;102028.31;;;18.97;80.20
24013;BME280;12220;50.194;18.948;2022-07-06T01:47:08;102024.90;;;18.94;80.12
24013;BME280;12220;50.194;18.948;2022-07-06T01:49:09;102025.17;;;18.91;80.05
24013;BME280;12220;50.194;18.948;2022-07-06T01:51:11;102024.57;;;18.64;80.12
24013;BME280;12220;50.194;18.948;2022-07-06T01:53:20;102021.86;;;18.86;80.27
24013;BME280;12220;50.194;18.948;2022-07-06T01:55:21;102029.31;;;18.85;80.17
24013;BME280;12220;50.194;18.948;2022-07-06T01:57:23;102023.90;;;18.84;80.17
24013;BME280;12220;50.194;18.948;2022-07-06T01:59:24;102027.67;;;18.82;80.11
24013;BME280;12220;50.194;18.948;2022-07-06T02:01:35;102035.12;;;18.82;80.08
24013;BME280;12220;50.194;18.948;2022-07-06T02:03:37;102031.48;;;18.81;80.06
24013;BME280;12220;50.194;18.948;2022-07-06T02:05:38;102027.94;;;18.79;79.96
24013;BME280;12220;50.194;18.948;2022-07-06T02:07:42;102022.52;;;18.78;79.93
24013;BME280;12220;50.194;18.948;2022-07-06T02:09:50;101987.27;;;18.57;79.90
24013;BME280;12220;50.194;18.948;2022-07-06T02:11:51;102016.09;;;18.77;79.90
24013;BME280;12220;50.194;18.948;2022-07-06T02:13:52;102018.74;;;18.79;79.84
24013;BME280;12220;50.194;18.948;2022-07-06T02:15:54;102017.84;;;18.78;79.62
24013;BME280;12220;50.194;18.948;2022-07-06T02:18:05;102014.19;;;18.78;79.53
24013;BME280;12220;50.194;18.948;2022-07-06T02:20:07;102004.23;;;18.75;79.45
24013;BME280;12220;50.194;18.948;2022-07-06T02:22:08;102011.81;;;18.73;79.61
24013;BME280;12220;50.194;18.948;2022-07-06T02:24:10;101805.84;;;17.50;79.31
24013;BME280;12220;50.194;18.948;2022-07-06T02:26:20;102017.63;;;18.70;79.16
24013;BME280;12220;50.194;18.948;2022-07-06T02:28:21;102029.39;;;18.62;78.84
24013;BME280;12220;50.194;18.948;2022-07-06T02:30:22;102028.35;;;18.52;78.58
24013;BME280;12220;50.194;18.948;2022-07-06T02:32:25;102036.59;;;18.42;78.52
24013;BME280;12220;50.194;18.948;2022-07-06T02:34:35;101836.80;;;17.10;78.54
24013;BME280;12220;50.194;18.948;2022-07-06T02:36:36;102038.23;;;18.22;78.90
24013;BME280;12220;50.194;18.948;2022-07-06T02:38:37;102030.42;;;18.16;79.18
24013;BME280;12220;50.194;18.948;2022-07-06T02:40:39;102030.55;;;18.15;79.40
24013;BME280;12220;50.194;18.948;2022-07-06T02:42:50;102029.65;;;18.14;79.59
24013;BME280;12220;50.194;18.948;2022-07-06T02:44:54;102034.20;;;18.15;79.57
24013;BME280;12220;50.194;18.948;2022-07-06T02:46:55;102040.86;;;18.12;79.39
24013;BME280;12220;50.194;18.948;2022-07-06T02:48:56;102034.45;;;18.12;79.32
24013;BME280;12220;50.194;18.948;2022-07-06T02:51:04;102025.27;;;18.11;79.37
24013;BME280;12220;50.194;18.948;2022-07-06T02:53:06;101819.15;;;16.88;79.32
24013;BME280;12220;50.194;18.948;2022-07-06T02:55:08;102034.45;;;18.12;79.45
24013;BME280;12220;50.194;18.948;2022-07-06T02:57:09;102044.41;;;18.15;79.39
24013;BME280;12220;50.194;18.948;2022-07-06T02:59:20;102033.33;;;18.15;79.31
24013;BME280;12220;50.194;18.948;2022-07-06T03:01:21;102035.97;;;18.16;79.23
24013;BME280;12220;50.194;18.948;2022-07-06T03:03:22;102033.33;;;18.15;79.23
24013;BME280;12220;50.194;18.948;2022-07-06T03:05:24;102045.89;;;18.19;79.12
24013;BME280;12220;50.194;18.948;2022-07-06T03:07:34;102048.58;;;18.20;79.03
24013;BME280;12220;50.194;18.948;2022-07-06T03:09:36;102045.89;;;18.19;78.84
24013;BME280;12220;50.194;18.948;2022-07-06T03:11:37;102042.39;;;18.17;78.58
24013;BME280;12220;50.194;18.948;2022-07-06T03:13:42;102047.05;;;18.16;78.55
24013;BME280;12220;50.194;18.948;2022-07-06T03:15:49;102046.41;;;18.12;78.49
24013;BME280;12220;50.194;18.948;2022-07-06T03:17:50;102054.98;;;18.09;78.47
24013;BME280;12220;50.194;18.948;2022-07-06T03:19:52;102059.78;;;18.07;78.38
24013;BME280;12220;50.194;18.948;2022-07-06T03:21:53;102065.58;;;18.04;78.40
24013;BME280;12220;50.194;18.948;2022-07-06T03:24:04;102050.94;;;18.02;78.46
24013;BME280;12220;50.194;18.948;2022-07-06T03:26:06;102059.38;;;18.01;78.49
24013;BME280;12220;50.194;18.948;2022-07-06T03:28:07;102059.38;;;18.01;78.43
24013;BME280;12220;50.194;18.948;2022-07-06T03:30:09;102056.73;;;17.99;78.35
24013;BME280;12220;50.194;18.948;2022-07-06T03:32:19;102064.30;;;17.97;78.34
24013;BME280;12220;50.194;18.948;2022-07-06T03:34:20;102063.41;;;17.97;78.38
24013;BME280;12220;50.194;18.948;2022-07-06T03:36:21;102064.43;;;17.96;78.37
24013;BME280;12220;50.194;18.948;2022-07-06T03:38:23;102066.30;;;17.95;78.31
24013;BME280;12220;50.194;18.948;2022-07-06T03:40:34;102074.87;;;17.92;78.26
24013;BME280;12220;50.194;18.948;2022-07-06T03:42:35;102073.17;;;17.89;78.28
24013;BME280;12220;50.194;18.948;2022-07-06T03:44:37;102080.75;;;17.87;78.29
24013;BME280;12220;50.194;18.948;2022-07-06T03:46:39;102079.09;;;17.85;78.38
24013;BME280;12220;50.194;18.948;2022-07-06T03:48:49;102071.90;;;17.82;78.51
24013;BME280;12220;50.194;18.948;2022-07-06T03:50:50;102072.94;;;17.81;78.61
24013;BME280;12220;50.194;18.948;2022-07-06T03:52:51;102066.62;;;17.79;78.61
24013;BME280;12220;50.194;18.948;2022-07-06T03:54:53;102076.83;;;17.78;78.71
24013;BME280;12220;50.194;18.948;2022-07-06T03:57:04;102076.83;;;17.78;78.79
24013;BME280;12220;50.194;18.948;2022-07-06T03:59:05;102086.01;;;17.79;78.89
24013;BME280;12220;50.194;18.948;2022-07-06T04:01:06;102079.47;;;17.80;78.89
24013;BME280;12220;50.194;18.948;2022-07-06T04:03:07;102078.48;;;17.81;78.87
24013;BME280;12220;50.194;18.948;2022-07-06T04:05:19;102077.44;;;17.82;78.90
24013;BME280;12220;50.194;18.948;2022-07-06T04:07:24;102080.22;;;17.82;78.88
24013;BME280;12220;50.194;18.948;2022-07-06T04:09:25;102087.78;;;17.80;78.91
24013;BME280;12220;50.194;18.948;2022-07-06T04:11:27;102093.45;;;17.78;79.01
24013;BME280;12220;50.194;18.948;2022-07-06T04:13:33;102090.80;;;17.77;79.04
24013;BME280;12220;50.194;18.948;2022-07-06T04:15:35;102089.02;;;17.76;79.16
24013;BME280;12220;50.194;18.948;2022-07-06T04:17:37;102091.80;;;17.76;79.28
24013;BME280;12220;50.194;18.948;2022-07-06T04:19:50;102101.77;;;17.78;79.40
24013;BME280;12220;50.194;18.948;2022-07-06T04:21:52;102104.28;;;17.82;79.46
24013;BME280;12220;50.194;18.948;2022-07-06T04:23:53;102102.51;;;17.81;79.51
24013;BME280;12220;50.194;18.948;2022-07-06T04:25:54;102117.15;;;17.83;79.49
24013;BME280;12220;50.194;18.948;2022-07-06T04:27:56;102114.38;;;17.83;79.52
24013;BME280;12220;50.194;18.948;2022-07-06T04:30:04;102122.69;;;17.83;79.66
24013;BME280;12220;50.194;18.948;2022-07-06T04:32:07;102121.66;;;17.84;79.81
24013;BME280;12220;50.194;18.948;2022-07-06T04:34:08;102121.45;;;17.87;79.77
24013;BME280;12220;50.194;18.948;2022-07-06T04:36:10;102124.21;;;17.87;79.75
24013;BME280;12220;50.194;18.948;2022-07-06T04:38:18;102127.72;;;17.89;79.70
24013;BME280;12220;50.194;18.948;2022-07-06T04:40:21;102131.38;;;17.89;79.77
24013;BME280;12220;50.194;18.948;2022-07-06T04:42:22;101906.43;;;16.68;79.73
24013;BME280;12220;50.194;18.948;2022-07-06T04:44:24;102129.29;;;17.93;79.91
24013;BME280;12220;50.194;18.948;2022-07-06T04:46:36;102122.75;;;17.94;80.00
24013;BME280;12220;50.194;18.948;2022-07-06T04:48:37;102127.14;;;17.97;79.97
24013;BME280;12220;50.194;18.948;2022-07-06T04:50:40;102122.38;;;17.99;79.93
24013;BME280;12220;50.194;18.948;2022-07-06T04:52:41;102123.25;;;17.99;79.93
24013;BME280;12220;50.194;18.948;2022-07-06T04:54:48;102121.35;;;18.00;79.87
24013;BME280;12220;50.194;18.948;2022-07-06T04:56:49;102129.79;;;17.98;79.71
24013;BME280;12220;50.194;18.948;2022-07-06T04:58:50;102127.02;;;17.98;79.67
24013;BME280;12220;50.194;18.948;2022-07-06T05:00:51;102130.70;;;17.99;79.84
24013;BME280;12220;50.194;18.948;2022-07-06T05:03:03;102132.44;;;18.00;79.85
24013;BME280;12220;50.194;18.948;2022-07-06T05:05:04;102130.56;;;18.00;79.76
24013;BME280;12220;50.194;18.948;2022-07-06T05:07:06;102129.45;;;18.03;79.83
24013;BME280;12220;50.194;18.948;2022-07-06T05:09:07;102137.41;;;18.07;79.88
24013;BME280;12220;50.194;18.948;2022-07-06T05:11:18;102133.38;;;18.11;79.86
24013;BME280;12220;50.194;18.948;2022-07-06T05:13:19;102137.88;;;18.12;79.74
24013;BME280;12220;50.194;18.948;2022-07-06T05:15:20;102134.12;;;18.14;79.62
24013;BME280;12220;50.194;18.948;2022-07-06T05:17:22;102132.22;;;18.14;79.51
24013;BME280;12220;50.194;18.948;2022-07-06T05:19:32;102123.03;;;18.14;79.55
24013;BME280;12220;50.194;18.948;2022-07-06T05:21:34;102127.58;;;18.15;79.60
24013;BME280;12220;50.194;18.948;2022-07-06T05:23:35;102120.13;;;18.15;79.54
24013;BME280;12220;50.194;18.948;2022-07-06T05:25:36;102117.12;;;18.18;79.58
24013;BME280;12220;50.194;18.948;2022-07-06T05:27:47;102111.31;;;18.21;79.54
24013;BME280;12220;50.194;18.948;2022-07-06T05:29:49;102120.54;;;18.22;79.46
24013;BME280;12220;50.194;18.948;2022-07-06T05:31:50;102120.41;;;18.23;79.41
24013;BME280;12220;50.194;18.948;2022-07-06T05:33:51;102111.97;;;18.25;79.40
24013;BME280;12220;50.194;18.948;2022-07-06T05:36:03;102116.25;;;18.29;79.41
24013;BME280;12220;50.194;18.948;2022-07-06T05:38:04;102108.55;;;18.33;79.47
24013;BME280;12220;50.194;18.948;2022-07-06T05:40:06;102122.95;;;18.38;79.44
24013;BME280;12220;50.194;18.948;2022-07-06T05:42:07;102123.31;;;18.44;79.42
24013;BME280;12220;50.194;18.948;2022-07-06T05:44:17;102127.47;;;18.50;79.39
24013;BME280;12220;50.194;18.948;2022-07-06T05:46:20;102133.77;;;18.52;79.29
24013;BME280;12220;50.194;18.948;2022-07-06T05:48:21;102136.31;;;18.55;79.28
24013;BME280;12220;50.194;18.948;2022-07-06T05:50:34;102134.41;;;18.56;79.29
24013;BME280;12220;50.194;18.948;2022-07-06T05:52:35;101521.80;;;14.72;78.84
24013;BME280;12220;50.194;18.948;2022-07-06T05:54:36;102144.77;;;18.54;79.10
24013;BME280;12220;50.194;18.948;2022-07-06T05:56:38;102151.19;;;18.54;79.20
24013;BME280;12220;50.194;18.948;2022-07-06T05:58:39;102158.38;;;18.57;79.33
24013;BME280;12220;50.194;18.948;2022-07-06T06:00:47;102148.77;;;18.61;79.40
24013;BME280;12220;50.194;18.948;2022-07-06T06:02:49;102155.72;;;18.67;79.45
24013;BME280;12220;50.194;18.948;2022-07-06T06:04:50;102158.14;;;18.71;79.37
24013;BME280;12220;50.194;18.948;2022-07-06T06:06:51;102148.39;;;18.77;79.37
24013;BME280;12220;50.194;18.948;2022-07-06T06:09:02;102158.11;;;18.82;79.29
24013;BME280;12220;50.194;18.948;2022-07-06T06:11:03;102155.07;;;18.86;79.24
24013;BME280;12220;50.194;18.948;2022-07-06T06:13:05;102166.84;;;18.89;79.09
24013;BME280;12220;50.194;18.948;2022-07-06T06:15:07;102169.49;;;18.91;78.92
24013;BME280;12220;50.194;18.948;2022-07-06T06:17:17;102174.18;;;18.90;78.71
24013;BME280;12220;50.194;18.948;2022-07-06T06:19:18;102177.70;;;18.92;78.86
24013;BME280;12220;50.194;18.948;2022-07-06T06:21:19;102178.30;;;18.96;78.75
24013;BME280;12220;50.194;18.948;2022-07-06T06:23:20;102183.76;;;18.97;78.55
24013;BME280;12220;50.194;18.948;2022-07-06T06:25:34;102191.19;;;18.97;78.47
24013;BME280;12220;50.194;18.948;2022-07-06T06:27:35;102202.28;;;18.97;78.47
24013;BME280;12220;50.194;18.948;2022-07-06T06:29:36;102196.73;;;18.97;78.30
24013;BME280;12220;50.194;18.948;2022-07-06T06:31:38;102200.51;;;18.96;78.23
24013;BME280;12220;50.194;18.948;2022-07-06T06:33:46;102198.64;;;18.96;78.14
24013;BME280;12220;50.194;18.948;2022-07-06T06:35:52;102207.10;;;18.95;78.11
24013;BME280;12220;50.194;18.948;2022-07-06T06:37:54;102202.67;;;18.92;78.06
24013;BME280;12220;50.194;18.948;2022-07-06T06:39:56;102206.32;;;18.93;78.18
24013;BME280;12220;50.194;18.948;2022-07-06T06:42:02;102203.67;;;18.91;78.12
24013;BME280;12220;50.194;18.948;2022-07-06T06:44:03;102208.36;;;18.91;78.03
24013;BME280;12220;50.194;18.948;2022-07-06T06:46:05;102210.27;;;18.90;78.17
24013;BME280;12220;50.194;18.948;2022-07-06T06:48:07;102207.62;;;18.89;78.13
24013;BME280;12220;50.194;18.948;2022-07-06T06:50:16;102202.93;;;18.89;78.19
24013;BME280;12220;50.194;18.948;2022-07-06T06:52:18;102213.05;;;18.90;78.22
24013;BME280;12220;50.194;18.948;2022-07-06T06:54:19;102201.93;;;18.90;78.13
24013;BME280;12220;50.194;18.948;2022-07-06T06:56:20;102221.23;;;18.92;78.22
24013;BME280;12220;50.194;18.948;2022-07-06T06:58:31;102204.45;;;18.93;78.24
24013;BME280;12220;50.194;18.948;2022-07-06T07:00:32;102204.45;;;18.93;78.29
24013;BME280;12220;50.194;18.948;2022-07-06T07:02:34;102205.06;;;18.97;78.39
24013;BME280;12220;50.194;18.948;2022-07-06T07:04:35;102194.61;;;19.01;78.40
24013;BME280;12220;50.194;18.948;2022-07-06T07:06:46;102199.00;;;19.03;78.28
24013;BME280;12220;50.194;18.948;2022-07-06T07:08:47;102197.25;;;19.02;78.25
24013;BME280;12220;50.194;18.948;2022-07-06T07:10:52;102199.91;;;19.04;78.25
24013;BME280;12220;50.194;18.948;2022-07-06T07:12:53;102205.93;;;19.09;78.31
24013;BME280;12220;50.194;18.948;2022-07-06T07:15:01;102203.80;;;19.12;78.22
24013;BME280;12220;50.194;18.948;2022-07-06T07:17:03;102205.45;;;19.15;78.13
24013;BME280;12220;50.194;18.948;2022-07-06T07:19:04;102211.13;;;19.13;77.91
24013;BME280;12220;50.194;18.948;2022-07-06T07:21:05;102210.23;;;19.13;77.63
24013;BME280;12220;50.194;18.948;2022-07-06T07:23:16;102211.37;;;19.10;77.48
24013;BME280;12220;50.194;18.948;2022-07-06T07:25:17;102222.72;;;19.07;77.18
24013;BME280;12220;50.194;18.948;2022-07-06T07:27:19;102228.66;;;19.03;76.67
24013;BME280;12220;50.194;18.948;2022-07-06T07:29:20;102236.60;;;18.96;76.44
24013;BME280;12220;50.194;18.948;2022-07-06T07:31:32;102232.59;;;18.89;76.29
24013;BME280;12220;50.194;18.948;2022-07-06T07:33:33;102239.49;;;18.83;76.24
24013;BME280;12220;50.194;18.948;2022-07-06T07:35:35;102236.19;;;18.78;75.92
24013;BME280;12220;50.194;18.948;2022-07-06T07:37:36;102246.54;;;18.76;75.87
24013;BME280;12220;50.194;18.948;2022-07-06T07:39:46;102240.10;;;18.75;75.90
24013;BME280;12220;50.194;18.948;2022-07-06T07:41:47;102238.48;;;18.73;75.60
24013;BME280;12220;50.194;18.948;2022-07-06T07:43:51;102233.05;;;18.71;75.46
24013;BME280;12220;50.194;18.948;2022-07-06T07:45:52;102238.60;;;18.71;75.43
24013;BME280;12220;50.194;18.948;2022-07-06T07:48:01;102234.93;;;18.71;75.16
24013;BME280;12220;50.194;18.948;2022-07-06T07:50:02;102236.95;;;18.69;74.98
24013;BME280;12220;50.194;18.948;2022-07-06T07:52:04;102239.73;;;18.69;75.05
24013;BME280;12220;50.194;18.948;2022-07-06T07:54:05;102240.35;;;18.72;74.99
24013;BME280;12220;50.194;18.948;2022-07-06T07:56:15;102234.54;;;18.75;75.03
24013;BME280;12220;50.194;18.948;2022-07-06T07:58:17;102234.07;;;18.81;75.12
24013;BME280;12220;50.194;18.948;2022-07-06T08:00:18;102239.02;;;18.89;74.95
24013;BME280;12220;50.194;18.948;2022-07-06T08:02:22;102237.38;;;18.98;74.80
24013;BME280;12220;50.194;18.948;2022-07-06T08:04:30;102229.31;;;19.06;73.95
24013;BME280;12220;50.194;18.948;2022-07-06T08:06:33;102238.52;;;19.07;73.20
24013;BME280;12220;50.194;18.948;2022-07-06T08:08:36;102240.02;;;19.11;73.24
24013;BME280;12220;50.194;18.948;2022-07-06T08:10:37;102238.99;;;19.12;73.10
24013;BME280;12220;50.194;18.948;2022-07-06T08:12:45;102232.31;;;19.14;72.79
24013;BME280;12220;50.194;18.948;2022-07-06T08:14:46;102234.70;;;19.19;73.03
24013;BME280;12220;50.194;18.948;2022-07-06T08:16:48;102237.26;;;19.22;72.76
24013;BME280;12220;50.194;18.948;2022-07-06T08:18:49;102232.05;;;19.29;72.73
24013;BME280;12220;50.194;18.948;2022-07-06T08:21:00;102232.55;;;19.34;72.53
24013;BME280;12220;50.194;18.948;2022-07-06T08:23:03;102232.91;;;19.41;72.59
24013;BME280;12220;50.194;18.948;2022-07-06T08:25:05;102240.84;;;19.45;72.02
24013;BME280;12220;50.194;18.948;2022-07-06T08:27:07;102228.47;;;19.49;71.84
24013;BME280;12220;50.194;18.948;2022-07-06T08:29:15;102234.53;;;19.55;71.68
24013;BME280;12220;50.194;18.948;2022-07-06T08:31:17;102229.84;;;19.55;71.30
24013;BME280;12220;50.194;18.948;2022-07-06T08:33:18;102237.79;;;19.60;71.23
24013;BME280;12220;50.194;18.948;2022-07-06T08:35:19;102230.09;;;19.63;70.99
24013;BME280;12220;50.194;18.948;2022-07-06T08:37:30;102233.73;;;19.64;70.10
24013;BME280;12220;50.194;18.948;2022-07-06T08:39:31;102230.09;;;19.63;70.21
24013;BME280;12220;50.194;18.948;2022-07-06T08:41:32;102225.13;;;19.67;70.48
24013;BME280;12220;50.194;18.948;2022-07-06T08:43:34;102222.72;;;19.74;70.70
24013;BME280;12220;50.194;18.948;2022-07-06T08:45:46;102231.57;;;19.79;70.44
24013;BME280;12220;50.194;18.948;2022-07-06T08:47:49;102219.17;;;19.83;70.31
24013;BME280;12220;50.194;18.948;2022-07-06T08:49:51;102225.23;;;19.88;70.24
24013;BME280;12220;50.194;18.948;2022-07-06T08:51:52;102222.05;;;19.93;70.16
24013;BME280;12220;50.194;18.948;2022-07-06T08:54:03;102220.77;;;19.97;70.13
24013;BME280;12220;50.194;18.948;2022-07-06T08:56:04;102216.72;;;20.01;69.59
24013;BME280;12220;50.194;18.948;2022-07-06T08:58:07;102217.31;;;20.05;69.59
24013;BME280;12220;50.194;18.948;2022-07-06T09:00:09;102221.59;;;20.09;69.50
24013;BME280;12220;50.194;18.948;2022-07-06T09:02:14;102221.19;;;20.13;69.46
24013;BME280;12220;50.194;18.948;2022-07-06T09:04:16;102210.70;;;20.17;69.54
24013;BME280;12220;50.194;18.948;2022-07-06T09:06:23;102214.80;;;20.23;69.39
24013;BME280;12220;50.194;18.948;2022-07-06T09:08:27;102208.87;;;20.27;69.26
24013;BME280;12220;50.194;18.948;2022-07-06T09:10:29;102204.90;;;20.30;69.05
24013;BME280;12220;50.194;18.948;2022-07-06T09:12:33;102216.80;;;20.32;68.59
24013;BME280;12220;50.194;18.948;2022-07-06T09:14:34;102210.23;;;20.33;68.53
24013;BME280;12220;50.194;18.948;2022-07-06T09:16:36;102211.82;;;20.35;68.56
24013;BME280;12220;50.194;18.948;2022-07-06T09:18:45;102212.45;;;20.39;68.33
24013;BME280;12220;50.194;18.948;2022-07-06T09:20:48;102213.32;;;20.40;68.11
24013;BME280;12220;50.194;18.948;2022-07-06T09:22:49;102214.82;;;20.44;67.94
24013;BME280;12220;50.194;18.948;2022-07-06T09:24:51;102210.90;;;20.46;67.36
24013;BME280;12220;50.194;18.948;2022-07-06T09:26:59;102199.34;;;20.51;67.32
24013;BME280;12220;50.194;18.948;2022-07-06T09:29:02;102197.00;;;20.56;66.74
24013;BME280;12220;50.194;18.948;2022-07-06T09:31:07;102194.29;;;20.66;66.95
24013;BME280;12220;50.194;18.948;2022-07-06T09:33:08;102200.09;;;20.74;66.38
24013;BME280;12220;50.194;18.948;2022-07-06T09:37:35;102211.00;;;20.87;65.50
24013;BME280;12220;50.194;18.948;2022-07-06T09:39:37;102203.23;;;20.90;64.96
24013;BME280;12220;50.194;18.948;2022-07-06T09:41:41;102203.09;;;20.92;64.68
24013;BME280;12220;50.194;18.948;2022-07-06T09:43:43;102202.80;;;20.95;64.07
24013;BME280;12220;50.194;18.948;2022-07-06T09:45:52;102207.22;;;20.98;63.66
24013;BME280;12220;50.194;18.948;2022-07-06T09:47:54;102206.07;;;21.00;63.30
24013;BME280;12220;50.194;18.948;2022-07-06T09:49:55;102211.34;;;21.03;63.67
24013;BME280;12220;50.194;18.948;2022-07-06T09:51:59;102212.69;;;21.09;63.73
24013;BME280;12220;50.194;18.948;2022-07-06T09:54:08;102160.88;;;20.87;63.80
24013;BME280;12220;50.194;18.948;2022-07-06T09:56:09;102209.20;;;21.17;63.62
24013;BME280;12220;50.194;18.948;2022-07-06T09:58:15;102209.05;;;21.18;63.15
24013;BME280;12220;50.194;18.948;2022-07-06T10:00:18;102208.76;;;21.21;63.19
24013;BME280;12220;50.194;18.948;2022-07-06T10:02:20;102209.38;;;21.25;63.02
24013;BME280;12220;50.194;18.948;2022-07-06T10:04:24;102210.25;;;21.25;62.86
24013;BME280;12220;50.194;18.948;2022-07-06T10:06:26;102209.08;;;21.28;62.08
24013;BME280;12220;50.194;18.948;2022-07-06T10:08:29;102210.10;;;21.27;62.18
24013;BME280;12220;50.194;18.948;2022-07-06T10:10:36;102211.73;;;21.30;62.29
24013;BME280;12220;50.194;18.948;2022-07-06T10:12:40;102213.20;;;21.34;62.22
24013;BME280;12220;50.194;18.948;2022-07-06T10:14:43;102206.91;;;21.41;62.22
24013;BME280;12220;50.194;18.948;2022-07-06T10:16:46;102205.17;;;21.50;62.08
24013;BME280;12220;50.194;18.948;2022-07-06T10:18:50;102203.92;;;21.64;62.09
24013;BME280;12220;50.194;18.948;2022-07-06T10:20:57;102196.15;;;21.78;61.70
24013;BME280;12220;50.194;18.948;2022-07-06T10:23:01;102201.28;;;21.92;61.07
24013;BME280;12220;50.194;18.948;2022-07-06T10:25:04;102200.99;;;22.05;60.77
24013;BME280;12220;50.194;18.948;2022-07-06T10:27:07;102206.13;;;22.19;60.87
24013;BME280;12220;50.194;18.948;2022-07-06T10:29:09;102198.62;;;22.29;59.91
24013;BME280;12220;50.194;18.948;2022-07-06T10:31:10;102210.98;;;22.37;59.72
24013;BME280;12220;50.194;18.948;2022-07-06T10:33:14;102199.20;;;22.43;59.43
24013;BME280;12220;50.194;18.948;2022-07-06T10:35:19;102201.38;;;22.49;59.30
24013;BME280;12220;50.194;18.948;2022-07-06T10:37:25;102212.25;;;22.52;58.79
24013;BME280;12220;50.194;18.948;2022-07-06T10:39:33;102201.38;;;22.59;58.30
24013;BME280;12220;50.194;18.948;2022-07-06T10:41:47;102208.83;;;22.68;57.95